Terminal Aerodrome Forecast
Issued by NWS Austin/San Antonio, TX

Home | Current Version | Previous Version | Text Only | Print | Product List | Glossary On
Versions: 1 2 3 4 5 6 7 8 9 10 11 12 13 14 15 16 17
000
FTUS44 KEWX 212331
TAFDRT
TAF
KDRT 212331Z 2200/2224 13010KT P6SM SKC
     FM221300 12010KT P6SM SCT025 BKN035
     FM221700 14015KT P6SM SCT040=

USA.gov is the U.S. government's official web portal to all federal, state and local government web resources and services.